05NY weather

Oswego County At Pulaski Heliport
Pulaski, New York, United States

Public forecast

Using degrees Fahrenheit for public forecast. Weather courtesy of forecast.io.

Closest aviation weather report (METAR) to Oswego County At Pulaski Heliport

Closest report is Oswego County Airport, 17.7 nm (32.8 km) SW. Retrieved 2019/10/23 12:54 UTC (12 minutes ago):

KFZY 231254Z AUTO 22005KT 10SM FEW046 OVC070 09/06 A2989 RMK AO2 SLP123 T00940056

Closest aviation forecast (TAF) to Oswego County At Pulaski Heliport

Closest forecast is Syracuse Hancock International Airport, 26.5 nm (49.0 km) S. Retrieved 2019/10/23 12:42 UTC (24 minutes ago):

TAF KSYR 231139Z 2312/2412 23007KT P6SM SCT080 FM231600 25011G18KT P6SM BKN060 FM232200 24008KT P6SM SCT070 FM240200 21006KT P6SM SKC FM241000 18006KT P6SM SCT150 WS020/24040KT